createdAt,value
2023-02-14T00:00:00.000Z,2.33
2023-02-14T00:15:00.000Z,2.03
2023-02-14T00:30:00.000Z,1.8
2023-02-14T00:45:00.000Z,1.67
2023-02-14T01:00:00.000Z,1.44
2023-02-14T01:15:00.000Z,1.35
2023-02-14T01:30:00.000Z,1.13
2023-02-14T01:45:00.000Z,1.14
2023-02-14T02:00:00.000Z,0.91
2023-02-14T02:15:00.000Z,0.78
2023-02-14T02:30:00.000Z,0.76
2023-02-14T02:45:00.000Z,0.87
2023-02-14T03:00:00.000Z,1.05
2023-02-14T03:15:00.000Z,0.88
2023-02-14T03:30:00.000Z,0.8
2023-02-14T03:45:00.000Z,0.91
2023-02-14T04:00:00.000Z,1.02
2023-02-14T04:15:00.000Z,0.93
2023-02-14T04:30:00.000Z,0.8
2023-02-14T04:45:00.000Z,0.75
2023-02-14T05:00:00.000Z,0.7
2023-02-14T05:15:00.000Z,0.62
2023-02-14T05:30:00.000Z,0.58
2023-02-14T05:45:00.000Z,0.48
2023-02-14T06:00:00.000Z,0.22
2023-02-14T06:15:00.000Z,0.2
2023-02-14T06:30:00.000Z,0.26
2023-02-14T06:45:00.000Z,0.59
2023-02-14T07:00:00.000Z,0.62
2023-02-14T07:15:00.000Z,0.75
2023-02-14T07:30:00.000Z,0.95
2023-02-14T07:45:00.000Z,1.12
2023-02-14T08:00:00.000Z,1.34
2023-02-14T08:15:00.000Z,1.32
2023-02-14T08:30:00.000Z,1.32
2023-02-14T08:45:00.000Z,1.51
2023-02-14T09:00:00.000Z,1.82
2023-02-14T09:15:00.000Z,2.02
2023-02-14T09:30:00.000Z,2.43
2023-02-14T09:45:00.000Z,3.03
2023-02-14T10:00:00.000Z,3.88
2023-02-14T10:15:00.000Z,4.61
2023-02-14T10:30:00.000Z,5.23
2023-02-14T10:45:00.000Z,7.24
2023-02-14T11:00:00.000Z,7.41
2023-02-14T11:15:00.000Z,6.02
2023-02-14T11:30:00.000Z,7.86
2023-02-14T11:45:00.000Z,8.43
2023-02-14T12:00:00.000Z,7.76
2023-02-14T12:15:00.000Z,7.95
2023-02-14T12:30:00.000Z,8.26
2023-02-14T12:45:00.000Z,8.06
2023-02-14T13:00:00.000Z,7.26
2023-02-14T13:15:00.000Z,7.03
2023-02-14T13:30:00.000Z,6.83
2023-02-14T13:45:00.000Z,6.62
2023-02-14T14:00:00.000Z,6.71
2023-02-14T14:15:00.000Z,6.39
2023-02-14T14:30:00.000Z,5.56
2023-02-14T14:45:00.000Z,6.07
2023-02-14T15:00:00.000Z,5.01
2023-02-14T15:15:00.000Z,4.35
2023-02-14T15:30:00.000Z,4.11
2023-02-14T15:45:00.000Z,3.62
2023-02-14T16:00:00.000Z,3.75
2023-02-14T16:15:00.000Z,3.49
2023-02-14T16:30:00.000Z,4.03
2023-02-14T16:45:00.000Z,4.37
2023-02-14T17:00:00.000Z,4.26
2023-02-14T17:15:00.000Z,3.23
2023-02-14T17:30:00.000Z,2.99
2023-02-14T17:45:00.000Z,3.22
2023-02-14T18:00:00.000Z,3.26
2023-02-14T18:15:00.000Z,3.27
2023-02-14T18:30:00.000Z,3.2
2023-02-14T18:45:00.000Z,3.06
2023-02-14T19:00:00.000Z,2.85
2023-02-14T19:15:00.000Z,2.77
2023-02-14T19:30:00.000Z,2.88
2023-02-14T19:45:00.000Z,3.01
2023-02-14T20:00:00.000Z,2.94
2023-02-14T20:15:00.000Z,2.85
2023-02-14T20:30:00.000Z,2.73
2023-02-14T20:45:00.000Z,2.45
2023-02-14T21:00:00.000Z,2.43
2023-02-14T21:15:00.000Z,2.21
2023-02-14T21:30:00.000Z,2.16
2023-02-14T21:45:00.000Z,2.18
2023-02-14T22:00:00.000Z,2.13
2023-02-14T22:15:00.000Z,2.08
2023-02-14T22:30:00.000Z,2.03
2023-02-14T22:45:00.000Z,2.11
2023-02-14T23:00:00.000Z,1.98
2023-02-14T23:15:00.000Z,2.03
2023-02-14T23:30:00.000Z,1.66
2023-02-14T23:45:00.000Z,1.24
